Terminal Aerodrome Forecast
Issued by NWS

Home | Current Version | Previous Version | Graphics & Text | Print | Product List | Glossary On
Versions: 1 2 3 4 5 6 7 8 9 10 11 12 13 14 15 16 17 18
064
FTUS43 KMPX 051732
TAFRNH
TAF
KRNH 051732Z 0518/0618 00000KT P6SM SCT050 BKN090
     FM052100 19008KT P6SM VCSH SCT025 BKN050
      TEMPO 0522/0601 5SM -SN BKN025
     FM060100 20006KT P6SM BKN020
     FM060600 25005KT P6SM SCT020
     FM061200 19008KT P6SM BKN250=

USA.gov is the U.S. government's official web portal to all federal, state and local government web resources and services.